Home PIREPS Pireps

Flight SAB4973

  • Submitted By: Carl Hermans
  • Departure Airport: Cote d'Azur International Airport (LFMN)
  • Arrival Airport: Franz Josef Strauss International Airport (EDDM)
  • Aircraft: B737-500 (OO-SAB)
  • Flight Time: 01.34
  • Date Submitted: 21/10/2016
  • Status: Accepted
Flight Details
Gross Revenue:
(117 load / € 0.00 per unit
€ 0.00
Fuel Cost:
(2087 fuel used @ 5.1 / unit)
€ 10,643.70

Additional Log Information:

View Log

Aircraft Used in flight is x737-800_v501 jetairfly
16:09Flaps 3 Selected at 20ft and 4kts
16:09 Engine 1 Started
16:09 Engine 2 Started
16:09 Engine 3 Started
16:09 Engine 4 Started
16:09 Strobe Lights ON at 20 AGL
16:09 Navigation Lights ON at 20 AGL
16:09 Beacon Lights ON at 20 AGL
16:09 Brakes are On
16:22 Brakes are Released
16:27 Brakes are On
16:27 Brakes are Released
16:29 Brakes are On
16:29 Brakes are Released
16:29 Brakes are On
16:29 Brakes are Released
16:29 Brakes are On
16:31 Brakes are Released
16:33 You Took off @ 159 Knots and Flaps at Position 3
Departure Weather
LFMN 211400Z 19013KT 9999 FEW043 19/11 Q1011 NOSIGrn
16:33 Landing Gear Up @ 177 Knots and 250 Feet
16:33Flaps Retracted at 330ft and 210kts
16:33 Below 10000 feet you are not allowed to go over 250 knots
16:33 You exceeded maximum bank angle
16:36 Above FL100 you need to switch of the landing lights
17:32Flaps 1 Selected at 5550ft and 200kts
17:32Flaps 3 Selected at 5540ft and 199kts
17:34Flaps 4 Selected at 3830ft and 188kts
17:34Flaps 5 Selected at 3540ft and 181kts
17:34 Landing Gear Down @ 179 Knots and 3520 Feet
17:37 You Landed @ 153 Knots and with -350 Vertical Speed
Arrival Weather
EDDM 211520Z 26005KT 9999 SCT020 SCT080 07/04 Q1015 NOSIGrn
17:37 Brakes are On
17:37 Brakes are Released
17:37Flaps 4 Selected at 1450ft and 4kts
17:37 Brakes are On
17:37Flaps Retracted at 1450ft and 0kts
17:38 Taxi Lights ON at 1450 AGL
17:38 Brakes are Released
17:39 Brakes are On
17:39 Brakes are Released
17:41 Brakes are On
17:41 Brakes are Released
17:43 Brakes are On
17:43 Taxi Lights OFF at 1460 AGL
17:43 Navigation Lights OFF at 1460 AGL
17:44 Beacon Lights OFF at 1460 AGL
17:44 Engine 1 Stoped
17:44 Engine 2 Stoped
17:44 Brussels Bel-Track1.0.0.11

Route Map

Corporate About Us Our Team Vacancies Information Fleet Route Network Rules and Regulations Operations Flight Schedules Event Center Tours Partners IVAO Vatsim Acars dev FSCB

fb Users Online Belgium Michael Bitu,
1 Pilot(s) and 94 Guest(s) Online
CMS by phpVMS - Design by Crazycreatives.com - Copyright © 2018 - Brussels Airlines Virtual